Date,TemperatureHighF,TemperatureAvgF,TemperatureLowF,DewpointHighF,DewpointAvgF,DewpointLowF,HumidityHigh,HumidityAvg,HumidityLow,PressureMaxIn,PressureMinIn,WindSpeedMaxMPH,WindSpeedAvgMPH,GustSpeedMaxMPH,PrecipitationSumIn
2014-1-1,42,32,22,31,21,15,92,67,37,0.00,40.00,6,2,15,0.00
2014-1-2,36,32,25,32,28,22,95,87,82,0.00,40.00,9,5,20,0.00
2014-1-3,24,16,10,21,4,-8,94,64,40,0.00,40.00,16,8,29,0.00
2014-1-4,30,15,-1,18,2,-100,87,65,37,0.00,40.00,5,2,16,0.00
2014-1-5,52,38,32,51,34,26,96,86,79,0.00,40.00,14,2,23,0.00
2014-1-6,55,42,15,54,33,-5,96,74,39,0.00,40.00,21,9,36,0.00
2014-1-7,13,9,4,-6,-12,-17,47,40,35,0.00,40.00,23,13,37,0.00
2014-1-8,25,18,11,11,-1,-8,73,46,30,0.00,40.00,10,4,17,0.00
2014-1-9,35,26,22,21,15,11,85,67,39,0.00,40.00,6,1,13,0.00
2014-1-10,45,34,27,44,31,19,96,89,75,0.00,40.00,5,2,8,0.41
2014-1-11,58,53,46,56,50,-100,96,94,92,0.00,40.00,11,5,22,0.69
2014-1-12,51,41,29,47,32,27,94,72,53,0.00,40.00,13,5,22,0.00
2014-1-13,47,41,29,37,33,27,95,76,62,0.00,40.00,6,3,11,0.00
2014-1-14,49,45,37,47,43,36,96,92,70,0.00,40.00,7,3,11,0.33
2014-1-15,51,42,36,47,39,34,96,91,79,0.00,40.00,11,2,16,0.01
2014-1-16,39,35,33,34,29,25,88,77,67,0.00,40.00,8,6,17,0.00
2014-1-17,46,39,33,32,29,26,91,69,46,0.00,40.00,5,2,9,0.00
2014-1-18,37,34,32,33,27,21,95,77,54,0.00,40.00,16,6,25,0.00
2014-1-21,19,19,19,14,14,14,89,89,89,0.00,40.00,5,5,0,0.00
2014-1-22,14,11,8,-4,-6,-8,62,50,41,0.00,40.00,11,6,22,0.00
2014-1-23,24,16,7,7,0,-4,71,52,39,0.00,40.00,11,6,23,0.00
2014-1-24,20,14,9,-2,-4,-6,60,49,37,0.00,40.00,14,7,21,0.00
2014-1-25,26,24,24,17,8,-100,73,59,54,0.00,40.00,5,2,17,0.00
2014-1-26,32,26,18,20,8,-2,65,49,30,0.00,40.00,12,6,27,0.07
2014-1-27,46,34,22,28,16,-5,69,48,32,0.00,40.00,16,6,27,0.00
2014-1-28,21,15,12,6,-6,-12,86,42,32,0.00,40.00,14,6,24,0.00
2014-1-29,21,15,11,6,-1,-11,88,57,30,0.00,40.00,11,5,20,0.00
2014-1-30,29,14,-3,5,-1,-9,86,61,26,0.00,40.00,5,1,12,0.00
2014-1-31,40,27,8,20,16,3,89,69,37,0.00,40.00,5,1,11,0.00
2014-2-1,49,43,38,37,25,-100,91,57,31,0.00,40.00,7,4,15,0.00
2014-2-2,55,42,31,37,34,30,96,74,40,0.00,40.00,7,1,10,0.00
2014-2-3,45,36,33,38,33,29,94,89,74,0.00,40.00,16,6,20,1.27
2014-2-4,35,31,26,28,23,18,83,74,63,0.00,40.00,6,3,11,0.03
2014-2-5,39,34,31,34,32,25,95,91,68,0.00,40.00,9,5,30,1.02
2014-2-6,33,28,24,21,15,12,89,62,46,0.00,40.00,23,6,25,0.00
2014-2-7,38,29,21,23,20,17,94,72,42,0.00,40.00,8,2,14,0.00
2014-2-8,29,25,20,20,14,4,90,66,33,0.00,40.00,5,2,11,0.00
2014-2-9,31,25,17,25,17,13,95,76,50,0.00,40.00,5,1,11,0.00
2014-2-10,28,24,15,24,12,7,94,64,42,0.00,40.00,13,6,20,0.00
2014-2-11,27,20,11,9,6,3,82,57,37,0.00,40.00,11,4,21,0.00
2014-2-12,29,21,9,21,8,0,90,62,40,0.00,40.00,8,4,16,0.00
2014-2-13,37,32,25,34,30,22,95,92,89,0.00,40.00,19,9,33,0.00
2014-2-14,45,38,28,32,26,23,94,62,42,0.00,40.00,11,5,24,0.00
2014-2-15,38,33,29,36,26,-100,94,78,53,0.00,40.00,16,7,28,0.00
2014-2-16,31,27,22,19,11,7,72,53,38,0.00,40.00,15,8,25,0.00
2014-2-17,32,25,18,16,9,3,79,55,30,0.00,40.00,13,4,16,0.00
2014-2-18,48,36,28,32,27,19,95,74,44,0.00,40.00,7,2,17,0.27
2014-2-19,46,41,34,43,35,27,94,79,57,0.00,40.00,7,4,16,0.18
2014-2-20,51,42,28,33,28,19,93,59,30,0.00,40.00,10,3,19,0.00
2014-2-21,61,48,39,56,44,33,96,87,76,0.00,40.00,9,3,25,0.07
2014-2-22,60,55,48,29,27,24,48,34,26,0.00,40.00,9,5,16,0.00
2014-2-23,59,51,41,34,30,25,71,48,29,0.00,40.00,10,4,13,0.00
2014-2-24,41,36,31,34,18,7,92,52,25,0.00,40.00,17,8,29,0.01
2014-2-25,33,28,22,27,19,9,90,72,43,0.00,40.00,10,3,16,0.00
2014-2-26,32,26,19,28,15,0,92,66,35,0.00,40.00,13,4,22,0.03
2014-2-27,36,26,14,17,8,-8,87,51,27,0.00,40.00,15,7,28,0.00
2014-2-28,25,17,10,6,-8,-16,74,36,19,0.00,40.00,13,4,29,0.00
2014-3-1,40,26,14,28,11,-100,86,60,30,0.00,40.00,7,2,11,0.00
2014-3-2,44,37,30,33,31,25,93,78,52,0.00,40.00,6,2,10,0.15
2014-3-3,33,21,10,30,12,0,92,72,45,0.00,40.00,4,0,12,0.06
2014-3-4,31,18,8,10,2,-4,84,57,31,0.00,40.00,4,0,9,0.21
2014-3-5,42,29,15,13,9,6,87,50,24,0.00,40.00,7,3,17,0.00
2014-3-6,33,28,22,18,12,5,71,53,36,0.00,40.00,11,6,19,0.00
2014-3-7,39,34,27,29,25,19,76,71,66,0.00,40.00,14,7,19,0.00
2014-3-8,58,44,31,35,31,28,90,63,38,0.00,40.00,6,3,19,0.00
2014-3-9,44,41,33,37,25,15,83,56,31,0.00,40.00,18,6,22,0.02
2014-3-10,56,43,30,29,25,22,81,52,34,0.00,40.00,10,3,13,0.00
2014-3-14,50,40,27,29,20,10,62,46,30,0.00,40.00,11,6,18,0.00
2014-3-15,64,52,42,31,25,-100,61,38,20,0.00,40.00,21,6,26,0.00
2014-3-16,44,38,30,25,16,5,75,43,20,0.00,40.00,10,5,20,0.00
2014-3-17,30,26,23,22,18,15,94,76,61,0.00,40.00,14,8,23,0.00
2014-3-18,45,36,27,27,20,14,75,54,38,0.00,40.00,11,6,19,0.09
2014-3-19,49,41,34,46,36,28,96,82,65,0.00,40.00,11,4,20,0.33
2014-3-20,57,47,42,41,30,-100,96,60,28,0.00,40.00,19,8,30,0.00
2014-3-21,56,43,29,34,25,-100,91,55,24,0.00,40.00,17,6,22,0.00
2014-3-22,67,53,40,38,32,-100,84,51,24,0.00,40.00,9,4,18,0.00
2014-3-23,50,42,34,29,22,11,60,45,35,0.00,40.00,11,5,17,0.00
2014-3-24,37,29,23,17,6,0,77,40,24,0.00,40.00,11,6,21,0.00
2014-3-25,37,29,21,29,22,14,95,78,48,0.00,40.00,9,4,18,0.00
2014-3-26,35,32,29,28,15,2,94,56,24,0.00,40.00,22,9,34,0.01
2014-3-27,40,33,21,26,13,4,64,45,27,0.00,40.00,11,5,20,0.00
2014-3-28,65,53,37,49,43,27,80,68,54,0.00,40.00,11,6,26,0.00
2014-3-29,58,52,50,55,49,-100,96,90,73,0.00,40.00,10,4,17,2.02
2014-3-30,55,46,38,54,44,34,96,92,83,0.00,40.00,13,7,24,0.58
2014-3-31,59,46,37,34,31,27,85,59,30,0.00,40.00,19,9,26,0.02
2014-4-1,58,46,36,36,30,-100,82,58,40,0.00,40.00,7,3,16,0.00
2014-4-2,60,49,41,45,41,36,93,76,56,0.00,40.00,5,3,11,0.00
2014-4-3,64,53,44,46,41,37,94,67,40,0.00,40.00,8,3,15,0.05
2014-4-4,52,48,44,45,40,33,93,75,62,0.00,40.00,10,4,21,0.01
2014-4-5,56,48,43,45,33,-100,95,62,32,0.00,40.00,23,8,26,0.00
2014-4-6,59,46,35,37,24,16,83,45,19,0.00,40.00,11,4,16,0.00
2014-4-7,52,43,34,49,38,33,93,82,70,0.00,40.00,15,3,15,0.02
2014-4-8,56,56,55,55,54,54,96,96,96,0.00,40.00,4,4,11,0.00
2014-4-9,64,59,47,33,29,22,55,33,21,0.00,40.00,13,7,24,0.00
2014-4-10,61,46,35,35,32,27,88,61,32,0.00,40.00,12,3,19,0.00
2014-4-11,79,70,58,52,44,37,79,42,22,0.00,40.00,11,5,18,0.00
2014-4-12,72,59,50,51,42,-100,95,62,26,0.00,40.00,11,3,15,0.00
2014-4-13,79,65,53,55,52,47,91,65,38,0.00,40.00,8,5,16,0.00
2014-4-14,77,67,60,58,54,50,82,67,40,0.00,40.00,16,7,28,0.00
2014-4-15,66,58,38,62,54,35,94,88,71,0.00,40.00,18,9,31,0.79
2014-4-16,48,39,31,33,20,12,92,49,29,0.00,40.00,16,8,29,0.05
2014-4-17,51,41,30,32,28,23,92,62,40,0.00,40.00,8,4,16,0.00
2014-4-18,52,43,36,39,33,30,82,68,50,0.00,40.00,7,4,15,0.00
2014-4-19,67,50,38,43,34,-100,94,64,22,0.00,40.00,9,2,16,0.00
2014-4-20,59,50,41,40,31,22,90,51,31,0.00,40.00,13,6,19,0.00
2014-4-21,65,50,33,47,37,23,86,63,40,0.00,40.00,8,3,13,0.00
2014-4-22,72,58,44,55,48,42,94,73,38,0.00,40.00,9,3,22,0.00
2014-4-23,60,54,47,49,35,31,71,50,41,0.00,40.00,29,13,32,0.00
2014-4-24,62,50,40,34,23,16,74,40,18,0.00,40.00,14,7,26,0.00
2014-4-25,60,49,34,47,30,19,90,56,24,0.00,40.00,16,4,26,0.41
2014-4-26,71,58,48,49,42,-100,95,63,26,0.00,40.00,15,6,25,0.02
2014-4-27,62,54,42,45,36,31,81,52,31,0.00,40.00,11,4,20,0.00
2014-4-28,62,50,36,47,39,34,94,69,40,0.00,40.00,8,3,13,0.09
2014-4-29,49,48,46,45,42,41,92,83,77,0.00,40.00,10,5,26,0.23
2014-4-30,60,53,46,59,51,44,95,93,91,0.00,40.00,21,7,30,2.63
2014-5-1,75,66,59,61,59,53,95,78,49,0.00,40.00,8,4,20,0.01
2014-5-2,67,61,54,55,43,36,77,53,34,0.00,40.00,10,4,22,0.00
2014-5-3,67,58,49,53,43,-100,94,65,32,0.00,40.00,14,3,14,0.04
2014-5-4,66,56,47,54,43,32,96,66,40,0.00,40.00,16,4,26,0.01
2014-5-5,65,56,46,43,35,30,82,47,28,0.00,40.00,13,6,21,0.00
2014-5-6,71,60,48,47,40,32,87,54,24,0.00,40.00,8,3,17,0.00
2014-5-13,67,58,55,53,51,50,85,77,59,0.00,40.00,5,3,12,0.00
2014-5-14,69,60,53,63,56,52,95,88,74,0.00,40.00,10,4,15,0.00
2014-5-15,79,69,62,68,64,61,96,86,60,0.00,40.00,15,6,30,0.00
2014-5-16,67,64,56,64,61,55,94,91,83,0.00,40.00,16,6,29,1.81
2014-5-17,68,58,50,53,44,-100,93,64,33,0.00,40.00,11,4,17,0.00
2014-5-18,67,56,45,46,42,34,95,64,34,0.00,40.00,11,4,17,0.00
2014-5-19,71,56,42,49,36,-100,95,58,25,0.00,40.00,13,3,20,0.00
2014-5-20,74,62,48,55,46,-100,94,61,33,0.00,40.00,7,2,16,0.00
2014-5-21,67,62,59,61,57,53,93,82,69,0.00,40.00,6,1,9,0.25
2014-5-22,77,64,59,65,58,-100,95,85,64,0.00,40.00,5,2,14,0.07
2014-5-23,74,65,58,58,50,45,95,62,36,0.00,40.00,13,5,25,0.01
2014-5-24,73,63,55,56,49,-100,83,65,44,0.00,40.00,7,3,15,0.00
2014-5-25,80,66,49,58,50,42,95,62,26,0.00,40.00,9,3,17,0.00
2014-5-26,84,73,61,61,57,53,81,60,36,0.00,40.00,5,3,15,0.00
2014-5-27,88,75,64,68,64,59,94,71,46,0.00,40.00,11,3,27,0.47
2014-5-28,75,65,55,67,61,51,94,88,76,0.00,40.00,10,4,17,0.06
2014-5-29,56,54,53,53,50,48,92,85,80,0.00,40.00,10,3,18,0.04
2014-5-30,72,60,53,57,54,52,94,80,54,0.00,40.00,5,2,11,0.00
2014-5-31,75,63,50,57,48,-100,93,64,27,0.00,40.00,11,4,21,0.00
2014-6-1,74,61,47,53,48,42,95,65,37,0.00,40.00,9,2,14,0.00
2014-6-2,76,66,46,57,50,43,93,58,40,0.00,40.00,10,3,14,0.00
2014-6-3,85,73,62,67,61,51,88,67,48,0.00,40.00,5,2,14,0.00
2014-6-4,85,73,63,67,62,52,95,72,33,0.00,40.00,8,3,14,0.00
2014-6-5,77,68,62,66,61,54,94,78,46,0.00,40.00,13,3,18,1.33
2014-6-6,75,66,56,57,53,49,93,65,40,0.00,40.00,5,2,16,0.00
2014-6-7,82,67,54,62,52,-100,95,65,33,0.00,40.00,9,2,14,0.00
2014-6-8,81,72,58,64,58,51,95,65,35,0.00,40.00,7,3,18,0.00
2014-6-9,82,73,66,68,65,59,91,77,58,0.00,40.00,7,3,17,0.22
2014-6-10,82,75,71,72,70,67,92,83,72,0.00,40.00,5,2,12,0.00
2014-6-11,71,69,64,69,66,62,94,89,81,0.00,40.00,9,4,16,0.24
2014-6-12,74,69,64,69,66,62,95,91,81,0.00,40.00,6,3,16,0.36
2014-6-13,82,73,70,71,69,67,95,88,63,0.00,40.00,6,2,16,0.11
2014-6-14,74,68,61,68,53,-100,92,64,43,0.00,40.00,12,5,21,0.00
2014-6-15,79,67,53,61,54,50,92,65,41,0.00,40.00,6,2,14,0.00
2014-6-16,83,69,57,65,60,56,95,76,45,0.00,40.00,2,0,7,0.00
2014-6-17,91,81,72,71,69,65,90,68,44,0.00,40.00,9,4,11,0.00
2014-6-18,92,84,75,71,68,64,87,61,40,0.00,40.00,10,4,22,0.00
2014-6-19,79,73,65,71,68,63,94,83,63,0.00,40.00,7,2,19,0.52
2014-6-20,80,70,60,64,55,45,95,64,30,0.00,40.00,7,2,13,0.00
2014-6-21,73,66,62,64,56,-100,89,73,60,0.00,40.00,3,1,9,0.00
2014-6-22,79,72,65,63,58,50,93,67,38,0.00,40.00,6,3,16,0.00
2014-6-23,79,70,60,64,58,51,95,70,38,0.00,40.00,9,2,16,0.00
2014-6-24,81,72,61,67,61,57,92,70,50,0.00,40.00,9,4,22,0.00
2014-6-25,86,78,71,73,71,67,91,79,65,0.00,40.00,11,4,20,0.00
2014-6-26,84,75,69,70,67,63,94,78,53,0.00,40.00,7,3,16,0.61
2014-6-27,81,72,67,66,63,55,94,74,51,0.00,40.00,8,3,13,0.00
2014-6-28,82,70,59,62,55,-100,94,64,45,0.00,40.00,9,2,13,0.00
2014-6-29,79,72,60,64,61,56,95,71,50,0.00,40.00,8,2,15,0.00
2014-6-30,82,74,65,69,64,63,92,73,54,0.00,40.00,7,3,14,0.00
2014-7-1,88,79,71,72,69,66,90,72,51,0.00,40.00,10,4,17,0.00
2014-7-2,91,84,75,75,72,68,89,70,58,0.00,40.00,8,4,17,0.00
2014-7-3,90,80,70,76,72,66,94,78,59,0.00,40.00,11,2,45,0.85
2014-7-4,76,72,67,71,61,48,94,72,42,0.00,40.00,11,4,26,0.08
2014-7-5,80,69,61,57,47,-100,87,49,31,0.00,40.00,10,4,18,0.00
2014-7-6,84,74,59,62,58,54,93,60,36,0.00,40.00,11,3,15,0.00
2014-7-7,90,80,72,68,64,60,73,60,36,0.00,40.00,7,4,16,0.00
2014-7-8,93,82,70,69,67,65,86,63,42,0.00,40.00,8,4,34,0.15
2014-7-9,86,78,72,72,69,67,90,75,55,0.00,40.00,6,2,12,0.01
2014-7-10,80,75,69,71,68,65,93,80,63,0.00,40.00,8,3,15,0.00
2014-7-11,84,75,67,68,66,63,93,75,53,0.00,40.00,8,2,14,0.00
2014-7-12,83,72,63,69,64,58,94,74,44,0.00,40.00,8,3,17,0.00
2014-7-13,89,79,71,73,70,67,89,76,55,0.00,40.00,8,4,15,0.00
2014-7-14,88,79,72,74,72,65,93,78,62,0.00,40.00,7,1,21,0.05
2014-7-15,88,78,72,75,72,69,93,84,58,0.00,40.00,8,2,19,0.90
2014-7-16,81,73,64,70,64,54,94,76,40,0.00,40.00,5,2,13,0.14
2014-7-17,81,71,59,62,58,54,95,68,41,0.00,40.00,9,3,14,0.00
2014-7-18,82,69,56,65,56,49,94,66,33,0.00,40.00,5,1,10,0.00
2014-7-19,77,70,62,62,60,55,91,70,48,0.00,40.00,7,2,11,0.00
2014-7-20,79,72,65,66,63,62,92,75,58,0.00,40.00,7,3,14,0.00
2014-7-21,81,71,60,66,62,58,95,74,52,0.00,40.00,7,2,15,0.00
2014-7-22,83,74,63,69,63,60,95,71,47,0.00,40.00,9,3,15,0.00
2014-7-23,87,77,67,73,69,64,93,78,61,0.00,40.00,6,2,25,0.01
2014-7-24,82,73,69,70,63,56,94,73,41,0.00,40.00,7,2,15,0.01
2014-7-25,82,72,59,58,54,47,87,55,30,0.00,40.00,6,2,12,0.00
2014-7-26,80,69,59,70,63,57,94,80,66,0.00,40.00,6,2,12,0.10
2014-7-27,86,78,72,71,69,67,91,76,53,0.00,40.00,10,4,16,0.00
2014-7-28,83,77,68,71,63,55,94,66,40,0.00,40.00,13,6,23,0.35
2014-7-29,76,68,59,61,57,53,93,69,45,0.00,40.00,9,3,12,0.00
2014-7-30,79,67,54,58,54,48,95,68,34,0.00,40.00,5,2,12,0.00
2014-7-31,85,68,57,68,58,55,94,73,40,0.00,40.00,9,2,15,0.00
2014-8-1,80,73,69,69,67,64,92,81,65,0.00,40.00,4,2,12,0.10
2014-8-2,75,70,64,66,64,62,94,84,67,0.00,40.00,10,4,19,0.26
2014-8-3,78,70,66,69,66,64,94,87,74,0.00,40.00,4,1,11,0.50
2014-8-4,83,74,65,69,65,62,95,78,50,0.00,40.00,5,2,11,0.00
2014-8-5,88,76,63,69,63,56,95,69,34,0.00,40.00,5,2,11,0.00
2014-8-6,79,73,65,66,63,61,94,72,53,0.00,40.00,10,2,13,0.00
2014-8-7,83,72,61,63,57,51,95,64,35,0.00,40.00,10,3,14,0.00
2014-8-8,81,69,56,58,54,50,93,63,34,0.00,40.00,5,1,13,0.00
2014-8-9,85,71,57,62,56,48,95,65,28,0.00,40.00,4,2,11,0.00
2014-8-10,86,72,60,67,58,47,95,67,27,0.00,40.00,9,2,16,0.00
2014-8-11,82,70,57,66,61,56,95,75,48,0.00,40.00,8,2,16,0.00
2014-8-12,79,72,68,71,68,66,93,87,66,0.00,40.00,13,4,23,2.78
2014-8-13,83,73,66,68,64,59,94,77,47,0.00,40.00,10,4,21,0.04
2014-8-14,79,70,60,60,55,51,84,60,41,0.00,40.00,5,2,15,0.00
2014-8-15,76,65,55,60,52,46,94,67,35,0.00,40.00,8,2,14,0.00
2014-8-16,81,68,56,62,57,52,95,73,40,0.00,40.00,5,1,10,0.00
2014-8-17,82,72,61,66,63,59,94,74,48,0.00,40.00,6,2,14,0.00
2014-8-18,71,62,56,64,58,54,95,87,64,0.00,40.00,5,1,7,0.00